ADDS METAR Data INFO
IDs: Format: Raw Decoded Include TAF

Data at: 0336 UTC 28 Jun 2017

KPAE 280253Z 00000KT 10SM CLR 19/11 A2998 RMK AO2 SLP150 T01890111 56007

KPAE 272337Z 2800/2824 24007KT P6SM BKN250
  FM280300 33005KT P6SM SCT250
  FM281100 VRB03KT P6SM OVC010
  FM281900 28006KT P6SM SCT250


KAWO 280326Z AUTO 29004KT 10SM FEW002 19/11 A2996 RMK AO2
No TAF found for KAWO

KBFI 280253Z COR 00000KT 10SM SCT250 21/12 A2996 RMK AO2 SLP144 T02110117 56010

KBFI 272337Z 2800/2824 VRB04KT P6SM SCT250
  FM281100 VRB03KT P6SM OVC016
  FM281900 23006KT P6SM SCT250


KRNT 280253Z 00000KT 10SM CLR 22/12 A2996 RMK AO2 SLP149 T02170117 56009
No TAF found for KRNT

KSEA 280253Z 00000KT 10SM FEW200 SCT250 21/09 A2997 RMK AO2 SLP154 T02110094 56010

KSEA 280302Z 2803/2906 VRB04KT P6SM FEW050 SCT200
  FM281200 20004KT P6SM BKN012
  FM281800 22005KT P6SM SKC
  FM290000 31005KT P6SM SKC



Page loaded:  03:36 UTC  |   08:36 PM Pacific  |   09:36 PM Mountain  |   10:36 PM Central  |   11:36 PM Eastern

 

ADVISORIES

FORECASTS

FORECASTS

OBSERVATIONS

USER TOOLS

ABOUT US